sensor_id;sensor_type;location;lat;lon;timestamp;pressure;altitude;pressure_sealevel;temperature;humidity
70103;BME280;57470;50.034;15.256;2024-02-23T00:00:50;97120.16;;;11.18;92.06
70103;BME280;57470;50.034;15.256;2024-02-23T00:03:15;97111.66;;;11.31;91.24
70103;BME280;57470;50.034;15.256;2024-02-23T00:05:41;97119.81;;;11.21;91.78
70103;BME280;57470;50.034;15.256;2024-02-23T00:08:07;97126.47;;;11.50;91.04
70103;BME280;57470;50.034;15.256;2024-02-23T00:10:32;97117.16;;;11.29;91.23
70103;BME280;57470;50.034;15.256;2024-02-23T00:12:58;97118.16;;;11.20;91.59
70103;BME280;57470;50.034;15.256;2024-02-23T00:15:23;97117.84;;;11.07;92.46
70103;BME280;57470;50.034;15.256;2024-02-23T00:17:50;97108.03;;;11.08;91.78
70103;BME280;57470;50.034;15.256;2024-02-23T00:20:15;97111.50;;;11.33;91.97
70103;BME280;57470;50.034;15.256;2024-02-23T00:22:41;97106.03;;;11.18;91.33
70103;BME280;57470;50.034;15.256;2024-02-23T00:25:06;97118.81;;;11.14;91.70
70103;BME280;57470;50.034;15.256;2024-02-23T00:27:31;97123.16;;;11.23;90.73
70103;BME280;57470;50.034;15.256;2024-02-23T00:29:57;97122.47;;;11.46;90.72
70103;BME280;57470;50.034;15.256;2024-02-23T00:32:22;97117.00;;;11.23;90.79
70103;BME280;57470;50.034;15.256;2024-02-23T00:34:48;97110.53;;;11.17;90.80
70103;BME280;57470;50.034;15.256;2024-02-23T00:37:13;97124.16;;;11.31;90.16
70103;BME280;57470;50.034;15.256;2024-02-23T00:39:38;97112.00;;;11.20;90.79
70103;BME280;57470;50.034;15.256;2024-02-23T00:42:04;97114.34;;;11.23;90.64
70103;BME280;57470;50.034;15.256;2024-02-23T00:44:29;97119.66;;;11.31;90.74
70103;BME280;57470;50.034;15.256;2024-02-23T00:46:55;97121.63;;;11.37;90.87
70103;BME280;57470;50.034;15.256;2024-02-23T00:49:22;97125.13;;;11.29;90.33
70103;BME280;57470;50.034;15.256;2024-02-23T00:51:48;97123.97;;;11.32;90.48
70103;BME280;57470;50.034;15.256;2024-02-23T00:54:13;97120.16;;;11.02;91.27
70103;BME280;57470;50.034;15.256;2024-02-23T00:56:39;97115.50;;;10.96;91.93
70103;BME280;57470;50.034;15.256;2024-02-23T00:59:04;97108.66;;;11.02;91.99
70103;BME280;57470;50.034;15.256;2024-02-23T01:01:29;97117.16;;;10.97;92.11
70103;BME280;57470;50.034;15.256;2024-02-23T01:03:55;97120.16;;;11.02;91.72
70103;BME280;57470;50.034;15.256;2024-02-23T01:06:20;97112.84;;;11.04;91.13
70103;BME280;57470;50.034;15.256;2024-02-23T01:08:45;97110.53;;;11.17;90.67
70103;BME280;57470;50.034;15.256;2024-02-23T01:11:11;97112.84;;;11.04;90.53
70103;BME280;57470;50.034;15.256;2024-02-23T01:13:36;97125.97;;;11.06;90.56
70103;BME280;57470;50.034;15.256;2024-02-23T01:16:02;97128.47;;;11.07;90.84
70103;BME280;57470;50.034;15.256;2024-02-23T01:18:27;97124.97;;;10.99;90.34
70103;BME280;57470;50.034;15.256;2024-02-23T01:20:53;97116.84;;;11.08;89.68
70103;BME280;57470;50.034;15.256;2024-02-23T01:23:18;97129.16;;;11.09;89.36
70103;BME280;57470;50.034;15.256;2024-02-23T01:25:43;97139.59;;;11.11;89.29
70103;BME280;57470;50.034;15.256;2024-02-23T01:28:09;97149.41;;;11.10;88.74
70103;BME280;57470;50.034;15.256;2024-02-23T01:30:34;97136.78;;;11.04;89.05
70103;BME280;57470;50.034;15.256;2024-02-23T01:32:59;97143.28;;;11.18;88.90
70103;BME280;57470;50.034;15.256;2024-02-23T01:35:25;97143.44;;;11.00;88.46
70103;BME280;57470;50.034;15.256;2024-02-23T01:37:51;97148.41;;;11.19;87.72
70103;BME280;57470;50.034;15.256;2024-02-23T01:40:16;97133.28;;;11.04;88.56
70103;BME280;57470;50.034;15.256;2024-02-23T01:42:42;97124.16;;;10.98;89.37
70103;BME280;57470;50.034;15.256;2024-02-23T01:45:07;97132.91;;;10.74;89.38
70103;BME280;57470;50.034;15.256;2024-02-23T01:47:33;97125.28;;;10.79;89.42
70103;BME280;57470;50.034;15.256;2024-02-23T01:49:59;97132.75;;;10.84;89.18
70103;BME280;57470;50.034;15.256;2024-02-23T01:52:24;97123.63;;;10.78;88.96
70103;BME280;57470;50.034;15.256;2024-02-23T01:54:50;97124.16;;;11.06;87.39
70103;BME280;57470;50.034;15.256;2024-02-23T01:57:16;97135.47;;;11.00;87.99
70103;BME280;57470;50.034;15.256;2024-02-23T01:59:42;97137.75;;;10.95;87.94
70103;BME280;57470;50.034;15.256;2024-02-23T02:02:08;97145.75;;;10.95;88.37
70103;BME280;57470;50.034;15.256;2024-02-23T02:04:34;97154.56;;;11.12;87.61
70103;BME280;57470;50.034;15.256;2024-02-23T02:07:01;97161.03;;;11.01;88.07
70103;BME280;57470;50.034;15.256;2024-02-23T02:09:28;97171.72;;;11.09;88.24
70103;BME280;57470;50.034;15.256;2024-02-23T02:11:55;97176.69;;;11.37;87.35
70103;BME280;57470;50.034;15.256;2024-02-23T02:14:22;97180.69;;;11.16;87.87
70103;BME280;57470;50.034;15.256;2024-02-23T02:16:49;97185.03;;;11.42;87.33
70103;BME280;57470;50.034;15.256;2024-02-23T02:19:16;97187.19;;;11.46;86.99
70103;BME280;57470;50.034;15.256;2024-02-23T02:21:43;97181.53;;;11.49;86.90
70103;BME280;57470;50.034;15.256;2024-02-23T02:24:10;97192.69;;;11.69;85.71
70103;BME280;57470;50.034;15.256;2024-02-23T02:26:37;97207.31;;;11.73;85.33
70103;BME280;57470;50.034;15.256;2024-02-23T02:29:04;97213.69;;;11.80;84.88
70103;BME280;57470;50.034;15.256;2024-02-23T02:31:30;97214.13;;;11.68;84.94
70103;BME280;57470;50.034;15.256;2024-02-23T02:34:03;97224.66;;;11.85;84.20
70103;BME280;57470;50.034;15.256;2024-02-23T02:36:31;97227.97;;;11.95;84.02
70103;BME280;57470;50.034;15.256;2024-02-23T02:38:58;97221.00;;;11.86;84.84
70103;BME280;57470;50.034;15.256;2024-02-23T02:41:28;97218.47;;;11.85;84.69
70103;BME280;57470;50.034;15.256;2024-02-23T02:43:58;97226.09;;;12.12;83.85
70103;BME280;57470;50.034;15.256;2024-02-23T02:46:25;97222.94;;;12.09;83.88
70103;BME280;57470;50.034;15.256;2024-02-23T02:48:51;97231.31;;;11.97;84.68
70103;BME280;57470;50.034;15.256;2024-02-23T02:51:18;97227.31;;;11.77;85.34
70103;BME280;57470;50.034;15.256;2024-02-23T02:53:45;97222.50;;;11.89;84.93
70103;BME280;57470;50.034;15.256;2024-02-23T02:56:12;97232.25;;;12.21;84.54
70103;BME280;57470;50.034;15.256;2024-02-23T02:58:38;97227.81;;;11.97;84.59
70103;BME280;57470;50.034;15.256;2024-02-23T03:01:05;97234.75;;;12.22;84.20
70103;BME280;57470;50.034;15.256;2024-02-23T03:03:32;97241.59;;;12.25;84.43
70103;BME280;57470;50.034;15.256;2024-02-23T03:05:59;97243.09;;;12.03;84.83
70103;BME280;57470;50.034;15.256;2024-02-23T03:08:25;97242.28;;;12.02;85.31
70103;BME280;57470;50.034;15.256;2024-02-23T03:10:51;97246.78;;;11.86;85.34
70103;BME280;57470;50.034;15.256;2024-02-23T03:13:16;97247.59;;;12.11;84.66
70103;BME280;57470;50.034;15.256;2024-02-23T03:15:42;97247.59;;;12.02;85.06
70103;BME280;57470;50.034;15.256;2024-02-23T03:18:07;97254.75;;;12.10;84.86
70103;BME280;57470;50.034;15.256;2024-02-23T03:20:34;97265.22;;;12.20;84.03
70103;BME280;57470;50.034;15.256;2024-02-23T03:23:00;97265.94;;;11.97;85.23
70103;BME280;57470;50.034;15.256;2024-02-23T03:25:27;97274.25;;;11.86;85.60
70103;BME280;57470;50.034;15.256;2024-02-23T03:27:53;97273.75;;;11.83;85.94
70103;BME280;57470;50.034;15.256;2024-02-23T03:30:18;97277.88;;;11.69;86.32
70103;BME280;57470;50.034;15.256;2024-02-23T03:32:43;97276.09;;;11.86;85.81
70103;BME280;57470;50.034;15.256;2024-02-23T03:35:09;97281.84;;;11.57;86.32
70103;BME280;57470;50.034;15.256;2024-02-23T03:37:34;97289.22;;;11.63;86.58
70103;BME280;57470;50.034;15.256;2024-02-23T03:39:59;97290.25;;;11.78;85.79
70103;BME280;57470;50.034;15.256;2024-02-23T03:42:26;97300.84;;;11.70;85.90
70103;BME280;57470;50.034;15.256;2024-02-23T03:44:52;97311.53;;;11.78;85.49
70103;BME280;57470;50.034;15.256;2024-02-23T03:47:17;97308.22;;;11.92;84.85
70103;BME280;57470;50.034;15.256;2024-02-23T03:49:42;97315.66;;;11.73;84.58
70103;BME280;57470;50.034;15.256;2024-02-23T03:52:08;97324.19;;;11.84;83.25
70103;BME280;57470;50.034;15.256;2024-02-23T03:54:33;97329.47;;;11.68;83.81
70103;BME280;57470;50.034;15.256;2024-02-23T03:56:59;97330.47;;;11.59;83.87
70103;BME280;57470;50.034;15.256;2024-02-23T03:59:24;97340.13;;;11.60;83.24
70103;BME280;57470;50.034;15.256;2024-02-23T04:01:49;97349.28;;;11.74;82.71
70103;BME280;57470;50.034;15.256;2024-02-23T04:04:15;97351.44;;;11.70;82.94
70103;BME280;57470;50.034;15.256;2024-02-23T04:06:40;97349.56;;;11.54;82.94
70103;BME280;57470;50.034;15.256;2024-02-23T04:09:05;97347.59;;;11.56;82.74
70103;BME280;57470;50.034;15.256;2024-02-23T04:11:31;97359.91;;;11.57;82.03
70103;BME280;57470;50.034;15.256;2024-02-23T04:13:57;97368.25;;;11.62;82.33
70103;BME280;57470;50.034;15.256;2024-02-23T04:16:23;97372.44;;;11.81;81.51
70103;BME280;57470;50.034;15.256;2024-02-23T04:18:50;97371.81;;;11.87;81.28
70103;BME280;57470;50.034;15.256;2024-02-23T04:21:15;97370.88;;;11.54;81.82
70103;BME280;57470;50.034;15.256;2024-02-23T04:23:40;97380.41;;;11.73;81.24
70103;BME280;57470;50.034;15.256;2024-02-23T04:26:06;97379.06;;;11.69;81.49
70103;BME280;57470;50.034;15.256;2024-02-23T04:28:31;97391.78;;;11.83;81.20
70103;BME280;57470;50.034;15.256;2024-02-23T04:30:58;97381.34;;;11.48;81.73
70103;BME280;57470;50.034;15.256;2024-02-23T04:33:24;97392.97;;;11.47;80.60
70103;BME280;57470;50.034;15.256;2024-02-23T04:35:50;97390.84;;;11.50;81.94
70103;BME280;57470;50.034;15.256;2024-02-23T04:38:15;97398.75;;;11.26;80.65
70103;BME280;57470;50.034;15.256;2024-02-23T04:40:40;97404.50;;;11.63;80.57
70103;BME280;57470;50.034;15.256;2024-02-23T04:43:06;97412.97;;;11.51;79.90
70103;BME280;57470;50.034;15.256;2024-02-23T04:45:31;97411.31;;;11.50;79.72
70103;BME280;57470;50.034;15.256;2024-02-23T04:47:56;97416.34;;;11.69;79.80
70103;BME280;57470;50.034;15.256;2024-02-23T04:50:22;97417.06;;;11.37;78.64
70103;BME280;57470;50.034;15.256;2024-02-23T04:52:48;97419.81;;;11.19;79.06
70103;BME280;57470;50.034;15.256;2024-02-23T04:55:15;97422.06;;;11.40;78.20
70103;BME280;57470;50.034;15.256;2024-02-23T04:57:40;97422.88;;;11.33;78.99
70103;BME280;57470;50.034;15.256;2024-02-23T05:00:06;97426.06;;;11.36;77.46
70103;BME280;57470;50.034;15.256;2024-02-23T05:02:32;97431.56;;;11.43;77.36
70103;BME280;57470;50.034;15.256;2024-02-23T05:05:01;97428.00;;;11.26;77.89
70103;BME280;57470;50.034;15.256;2024-02-23T05:07:30;97425.97;;;11.20;78.94
70103;BME280;57470;50.034;15.256;2024-02-23T05:09:56;97439.22;;;11.12;78.89
70103;BME280;57470;50.034;15.256;2024-02-23T05:12:22;97445.09;;;11.15;78.48
70103;BME280;57470;50.034;15.256;2024-02-23T05:14:47;97445.38;;;11.12;78.42
70103;BME280;57470;50.034;15.256;2024-02-23T05:17:12;97442.66;;;10.96;79.37
70103;BME280;57470;50.034;15.256;2024-02-23T05:19:38;97439.03;;;11.05;79.17
70103;BME280;57470;50.034;15.256;2024-02-23T05:22:03;97440.63;;;10.64;79.68
70103;BME280;57470;50.034;15.256;2024-02-23T05:24:29;97464.13;;;10.77;79.90
70103;BME280;57470;50.034;15.256;2024-02-23T05:26:54;97457.41;;;10.47;79.72
70103;BME280;57470;50.034;15.256;2024-02-23T05:29:19;97469.91;;;10.72;80.24
70103;BME280;57470;50.034;15.256;2024-02-23T05:31:52;97475.44;;;10.79;79.66
70103;BME280;57470;50.034;15.256;2024-02-23T05:34:18;97473.88;;;10.94;79.40
70103;BME280;57470;50.034;15.256;2024-02-23T05:36:44;97482.66;;;10.69;78.63
70103;BME280;57470;50.034;15.256;2024-02-23T05:39:11;97476.94;;;10.56;79.00
70103;BME280;57470;50.034;15.256;2024-02-23T05:41:38;97490.44;;;10.62;78.52
70103;BME280;57470;50.034;15.256;2024-02-23T05:44:04;97492.72;;;10.39;77.99
70103;BME280;57470;50.034;15.256;2024-02-23T05:46:39;97501.22;;;10.61;76.91
70103;BME280;57470;50.034;15.256;2024-02-23T05:49:05;97503.88;;;10.43;76.00
70103;BME280;57470;50.034;15.256;2024-02-23T05:51:30;97518.69;;;10.45;75.54
70103;BME280;57470;50.034;15.256;2024-02-23T05:53:57;97510.25;;;10.32;75.55
70103;BME280;57470;50.034;15.256;2024-02-23T05:56:23;97522.78;;;10.40;75.40
70103;BME280;57470;50.034;15.256;2024-02-23T05:58:51;97526.81;;;10.44;75.32
70103;BME280;57470;50.034;15.256;2024-02-23T06:01:18;97525.97;;;10.26;75.70
70103;BME280;57470;50.034;15.256;2024-02-23T06:03:43;97536.81;;;10.32;75.08
70103;BME280;57470;50.034;15.256;2024-02-23T06:06:10;97533.47;;;10.30;74.56
70103;BME280;57470;50.034;15.256;2024-02-23T06:08:35;97534.72;;;10.53;73.91
70103;BME280;57470;50.034;15.256;2024-02-23T06:11:01;97532.16;;;10.16;74.28
70103;BME280;57470;50.034;15.256;2024-02-23T06:13:28;97537.31;;;10.45;74.09
70103;BME280;57470;50.034;15.256;2024-02-23T06:15:54;97547.25;;;10.43;73.30
70103;BME280;57470;50.034;15.256;2024-02-23T06:18:19;97539.13;;;10.63;72.91
70103;BME280;57470;50.034;15.256;2024-02-23T06:20:45;97536.84;;;10.50;73.54
70103;BME280;57470;50.034;15.256;2024-02-23T06:23:10;97540.78;;;10.28;74.17
70103;BME280;57470;50.034;15.256;2024-02-23T06:25:35;97537.13;;;10.29;73.20
70103;BME280;57470;50.034;15.256;2024-02-23T06:28:01;97550.25;;;10.31;73.09
70103;BME280;57470;50.034;15.256;2024-02-23T06:30:26;97548.44;;;10.31;74.33
70103;BME280;57470;50.034;15.256;2024-02-23T06:32:51;97548.16;;;10.34;74.30
70103;BME280;57470;50.034;15.256;2024-02-23T06:35:17;97549.34;;;10.40;73.40
70103;BME280;57470;50.034;15.256;2024-02-23T06:37:42;97562.78;;;10.21;75.02
70103;BME280;57470;50.034;15.256;2024-02-23T06:40:08;97562.94;;;10.19;73.92
70103;BME280;57470;50.034;15.256;2024-02-23T06:42:33;97560.22;;;10.29;73.88
70103;BME280;57470;50.034;15.256;2024-02-23T06:44:59;97571.09;;;10.35;73.58
70103;BME280;57470;50.034;15.256;2024-02-23T06:47:24;97576.47;;;10.26;73.61
70103;BME280;57470;50.034;15.256;2024-02-23T06:49:50;97577.09;;;10.37;74.02
70103;BME280;57470;50.034;15.256;2024-02-23T06:52:15;97587.69;;;10.20;74.94
70103;BME280;57470;50.034;15.256;2024-02-23T06:54:41;97585.72;;;10.12;75.63
70103;BME280;57470;50.034;15.256;2024-02-23T06:57:07;97584.16;;;10.29;75.07
70103;BME280;57470;50.034;15.256;2024-02-23T06:59:32;97591.78;;;10.32;75.61
70103;BME280;57470;50.034;15.256;2024-02-23T07:01:58;97592.03;;;10.11;75.63
70103;BME280;57470;50.034;15.256;2024-02-23T07:04:23;97591.53;;;9.98;76.04
70103;BME280;57470;50.034;15.256;2024-02-23T07:06:49;97603.88;;;10.16;76.24
70103;BME280;57470;50.034;15.256;2024-02-23T07:09:14;97595.97;;;10.07;77.58
70103;BME280;57470;50.034;15.256;2024-02-23T07:11:39;97606.63;;;9.97;77.24
70103;BME280;57470;50.034;15.256;2024-02-23T07:14:07;97605.19;;;10.03;76.91
70103;BME280;57470;50.034;15.256;2024-02-23T07:16:37;97613.66;;;9.89;77.00
70103;BME280;57470;50.034;15.256;2024-02-23T07:19:03;97611.91;;;10.07;76.94
70103;BME280;57470;50.034;15.256;2024-02-23T07:21:28;97614.94;;;10.12;77.67
70103;BME280;57470;50.034;15.256;2024-02-23T07:23:54;97611.53;;;10.29;77.00
70103;BME280;57470;50.034;15.256;2024-02-23T07:26:19;97621.19;;;9.93;77.77
70103;BME280;57470;50.034;15.256;2024-02-23T07:28:47;97611.38;;;9.94;77.60
70103;BME280;57470;50.034;15.256;2024-02-23T07:31:12;97630.69;;;9.96;77.67
70103;BME280;57470;50.034;15.256;2024-02-23T07:33:38;97629.06;;;9.75;77.92
70103;BME280;57470;50.034;15.256;2024-02-23T07:36:04;97646.56;;;10.05;77.20
70103;BME280;57470;50.034;15.256;2024-02-23T07:38:29;97638.75;;;10.04;77.51
70103;BME280;57470;50.034;15.256;2024-02-23T07:40:54;97638.53;;;9.88;78.24
70103;BME280;57470;50.034;15.256;2024-02-23T07:43:20;97645.28;;;9.82;78.26
70103;BME280;57470;50.034;15.256;2024-02-23T07:45:46;97650.72;;;9.81;78.05
70103;BME280;57470;50.034;15.256;2024-02-23T07:48:11;97649.13;;;9.97;77.38
70103;BME280;57470;50.034;15.256;2024-02-23T07:50:36;97658.00;;;9.78;77.72
70103;BME280;57470;50.034;15.256;2024-02-23T07:53:02;97671.13;;;9.80;78.38
70103;BME280;57470;50.034;15.256;2024-02-23T07:55:27;97666.97;;;9.68;78.65
70103;BME280;57470;50.034;15.256;2024-02-23T07:57:52;97683.75;;;10.05;78.42
70103;BME280;57470;50.034;15.256;2024-02-23T08:00:22;97682.31;;;9.84;79.74
70103;BME280;57470;50.034;15.256;2024-02-23T08:02:48;97679.47;;;9.85;79.98
70103;BME280;57470;50.034;15.256;2024-02-23T08:05:13;97673.50;;;9.83;79.62
70103;BME280;57470;50.034;15.256;2024-02-23T08:07:38;97667.16;;;9.57;80.24
70103;BME280;57470;50.034;15.256;2024-02-23T08:10:04;97673.75;;;9.90;78.36
70103;BME280;57470;50.034;15.256;2024-02-23T08:12:30;97678.25;;;9.79;79.01
70103;BME280;57470;50.034;15.256;2024-02-23T08:14:55;97675.25;;;9.55;79.30
70103;BME280;57470;50.034;15.256;2024-02-23T08:17:21;97681.19;;;9.76;78.86
70103;BME280;57470;50.034;15.256;2024-02-23T08:19:46;97681.72;;;9.90;78.76
70103;BME280;57470;50.034;15.256;2024-02-23T08:22:12;97681.06;;;9.78;79.34
70103;BME280;57470;50.034;15.256;2024-02-23T08:24:37;97690.44;;;9.72;78.37
70103;BME280;57470;50.034;15.256;2024-02-23T08:27:03;97691.41;;;9.81;78.28
70103;BME280;57470;50.034;15.256;2024-02-23T08:29:28;97692.22;;;9.82;76.93
70103;BME280;57470;50.034;15.256;2024-02-23T08:31:53;97696.13;;;9.77;77.08
70103;BME280;57470;50.034;15.256;2024-02-23T08:34:19;97707.50;;;9.60;79.16
70103;BME280;57470;50.034;15.256;2024-02-23T08:36:45;97712.41;;;9.55;78.60
70103;BME280;57470;50.034;15.256;2024-02-23T08:39:10;97713.50;;;9.62;78.68
70103;BME280;57470;50.034;15.256;2024-02-23T08:41:35;97724.09;;;9.82;78.62
70103;BME280;57470;50.034;15.256;2024-02-23T08:44:01;97724.97;;;9.53;79.24
70103;BME280;57470;50.034;15.256;2024-02-23T08:46:26;97728.28;;;9.84;78.67
70103;BME280;57470;50.034;15.256;2024-02-23T08:48:51;97720.63;;;9.71;79.21
70103;BME280;57470;50.034;15.256;2024-02-23T08:51:17;97728.53;;;9.91;78.92
70103;BME280;57470;50.034;15.256;2024-02-23T08:53:42;97733.50;;;9.57;78.65
70103;BME280;57470;50.034;15.256;2024-02-23T08:56:08;97742.69;;;9.82;78.32
70103;BME280;57470;50.034;15.256;2024-02-23T08:58:34;97740.88;;;9.63;79.73
70103;BME280;57470;50.034;15.256;2024-02-23T09:01:00;97740.25;;;9.98;79.01
70103;BME280;57470;50.034;15.256;2024-02-23T09:03:25;97750.00;;;10.26;78.17
70103;BME280;57470;50.034;15.256;2024-02-23T09:05:51;97736.38;;;9.83;78.94
70103;BME280;57470;50.034;15.256;2024-02-23T09:08:16;97733.91;;;9.43;80.66
70103;BME280;57470;50.034;15.256;2024-02-23T09:10:41;97742.53;;;9.93;79.35
70103;BME280;57470;50.034;15.256;2024-02-23T09:13:07;97743.06;;;9.87;79.26
70103;BME280;57470;50.034;15.256;2024-02-23T09:15:33;97758.16;;;9.96;79.32
70103;BME280;57470;50.034;15.256;2024-02-23T09:17:58;97756.50;;;9.85;80.56
70103;BME280;57470;50.034;15.256;2024-02-23T09:20:23;97773.34;;;10.13;79.76
70103;BME280;57470;50.034;15.256;2024-02-23T09:22:49;97764.06;;;9.70;79.08
70103;BME280;57470;50.034;15.256;2024-02-23T09:25:14;97759.59;;;9.61;78.91
70103;BME280;57470;50.034;15.256;2024-02-23T09:27:40;97765.63;;;9.63;78.46
70103;BME280;57470;50.034;15.256;2024-02-23T09:30:13;97772.16;;;9.69;78.65
70103;BME280;57470;50.034;15.256;2024-02-23T09:32:38;97774.97;;;9.38;79.58
70103;BME280;57470;50.034;15.256;2024-02-23T09:35:04;97776.34;;;9.81;78.99
70103;BME280;57470;50.034;15.256;2024-02-23T09:37:30;97786.22;;;10.08;78.42
70103;BME280;57470;50.034;15.256;2024-02-23T09:39:56;97789.03;;;9.97;77.84
70103;BME280;57470;50.034;15.256;2024-02-23T09:42:22;97777.97;;;10.21;77.23
70103;BME280;57470;50.034;15.256;2024-02-23T09:44:57;97775.16;;;10.22;77.26
70103;BME280;57470;50.034;15.256;2024-02-23T09:47:24;97796.53;;;10.30;77.12
70103;BME280;57470;50.034;15.256;2024-02-23T09:49:51;97800.75;;;10.23;77.28
70103;BME280;57470;50.034;15.256;2024-02-23T09:52:18;97788.03;;;10.17;76.81
70103;BME280;57470;50.034;15.256;2024-02-23T09:54:45;97796.44;;;10.03;77.20
70103;BME280;57470;50.034;15.256;2024-02-23T09:57:10;97787.56;;;9.65;79.62
70103;BME280;57470;50.034;15.256;2024-02-23T09:59:36;97791.81;;;10.05;78.13
70103;BME280;57470;50.034;15.256;2024-02-23T10:02:09;97787.31;;;10.34;77.75
70103;BME280;57470;50.034;15.256;2024-02-23T10:04:36;97778.47;;;10.43;76.15
70103;BME280;57470;50.034;15.256;2024-02-23T10:07:01;97777.06;;;9.73;78.11
70103;BME280;57470;50.034;15.256;2024-02-23T10:09:26;97765.97;;;9.97;77.21
70103;BME280;57470;50.034;15.256;2024-02-23T10:11:55;97779.38;;;10.62;75.85
70103;BME280;57470;50.034;15.256;2024-02-23T10:14:21;97784.47;;;10.45;76.57
70103;BME280;57470;50.034;15.256;2024-02-23T10:16:46;97781.00;;;10.45;75.69
70103;BME280;57470;50.034;15.256;2024-02-23T10:19:12;97776.41;;;10.65;74.89
70103;BME280;57470;50.034;15.256;2024-02-23T10:21:37;97769.53;;;10.44;76.14
70103;BME280;57470;50.034;15.256;2024-02-23T10:24:05;97760.88;;;10.70;75.86
70103;BME280;57470;50.034;15.256;2024-02-23T10:26:30;97756.13;;;10.36;75.08
70103;BME280;57470;50.034;15.256;2024-02-23T10:28:55;97753.47;;;10.36;75.87
70103;BME280;57470;50.034;15.256;2024-02-23T10:31:22;97752.25;;;11.03;74.46
70103;BME280;57470;50.034;15.256;2024-02-23T10:33:50;97761.06;;;10.86;75.35
70103;BME280;57470;50.034;15.256;2024-02-23T10:36:17;97760.13;;;10.77;74.05
70103;BME280;57470;50.034;15.256;2024-02-23T10:38:45;97775.41;;;10.38;75.44
70103;BME280;57470;50.034;15.256;2024-02-23T10:41:13;97781.16;;;10.34;76.37
70103;BME280;57470;50.034;15.256;2024-02-23T10:43:47;97792.78;;;10.70;76.44
70103;BME280;57470;50.034;15.256;2024-02-23T10:46:12;97806.63;;;10.36;76.64
70103;BME280;57470;50.034;15.256;2024-02-23T10:48:40;97813.72;;;10.82;75.48
70103;BME280;57470;50.034;15.256;2024-02-23T10:51:06;97793.56;;;10.80;74.85
70103;BME280;57470;50.034;15.256;2024-02-23T10:53:34;97802.63;;;11.32;74.57
70103;BME280;57470;50.034;15.256;2024-02-23T10:56:03;97809.88;;;11.40;73.27
70103;BME280;57470;50.034;15.256;2024-02-23T10:58:29;97810.47;;;11.34;73.79
70103;BME280;57470;50.034;15.256;2024-02-23T11:01:00;97812.88;;;10.82;73.44
70103;BME280;57470;50.034;15.256;2024-02-23T11:03:28;97823.72;;;10.98;74.38
70103;BME280;57470;50.034;15.256;2024-02-23T11:05:53;97814.66;;;11.36;72.39
70103;BME280;57470;50.034;15.256;2024-02-23T11:08:19;97814.50;;;11.55;72.04
70103;BME280;57470;50.034;15.256;2024-02-23T11:10:51;97815.31;;;11.20;73.85
70103;BME280;57470;50.034;15.256;2024-02-23T11:13:36;97816.31;;;11.37;72.65
70103;BME280;57470;50.034;15.256;2024-02-23T11:16:05;97815.81;;;11.06;73.97
70103;BME280;57470;50.034;15.256;2024-02-23T11:18:32;97830.41;;;10.65;73.75
70103;BME280;57470;50.034;15.256;2024-02-23T11:21:00;97835.81;;;11.10;71.80
70103;BME280;57470;50.034;15.256;2024-02-23T11:23:27;97839.34;;;10.74;73.80
70103;BME280;57470;50.034;15.256;2024-02-23T11:26:20;97843.75;;;10.93;73.42
70103;BME280;57470;50.034;15.256;2024-02-23T11:28:51;97853.91;;;11.07;73.56
70103;BME280;57470;50.034;15.256;2024-02-23T11:31:20;97840.84;;;11.13;72.02
70103;BME280;57470;50.034;15.256;2024-02-23T11:33:53;97836.34;;;11.59;70.32
70103;BME280;57470;50.034;15.256;2024-02-23T11:36:28;97841.34;;;11.89;70.96
70103;BME280;57470;50.034;15.256;2024-02-23T11:38:56;97844.59;;;10.93;72.65
70103;BME280;57470;50.034;15.256;2024-02-23T11:41:23;97837.28;;;10.68;74.41
70103;BME280;57470;50.034;15.256;2024-02-23T11:43:49;97840.84;;;11.13;73.01
70103;BME280;57470;50.034;15.256;2024-02-23T11:46:16;97836.56;;;10.66;73.76
70103;BME280;57470;50.034;15.256;2024-02-23T11:48:42;97834.59;;;10.31;74.43
70103;BME280;57470;50.034;15.256;2024-02-23T11:51:09;97843.50;;;10.39;75.85
70103;BME280;57470;50.034;15.256;2024-02-23T11:53:35;97843.78;;;10.56;73.34
70103;BME280;57470;50.034;15.256;2024-02-23T11:56:01;97847.13;;;10.85;73.86
70103;BME280;57470;50.034;15.256;2024-02-23T11:58:27;97858.81;;;10.65;72.89
70103;BME280;57470;50.034;15.256;2024-02-23T12:00:52;97854.53;;;10.64;74.38
70103;BME280;57470;50.034;15.256;2024-02-23T12:03:18;97850.09;;;10.45;74.87
70103;BME280;57470;50.034;15.256;2024-02-23T12:05:43;97846.25;;;10.94;73.46
70103;BME280;57470;50.034;15.256;2024-02-23T12:08:09;97840.16;;;10.84;72.73
70103;BME280;57470;50.034;15.256;2024-02-23T12:10:34;97849.03;;;11.02;73.71
70103;BME280;57470;50.034;15.256;2024-02-23T12:13:01;97848.19;;;10.65;74.46
70103;BME280;57470;50.034;15.256;2024-02-23T12:15:27;97835.63;;;10.57;73.26
70103;BME280;57470;50.034;15.256;2024-02-23T12:17:53;97840.47;;;10.15;74.33
70103;BME280;57470;50.034;15.256;2024-02-23T12:20:19;97841.03;;;11.02;71.49
70103;BME280;57470;50.034;15.256;2024-02-23T12:22:47;97827.81;;;10.83;72.38
70103;BME280;57470;50.034;15.256;2024-02-23T12:25:12;97832.09;;;11.66;71.61
70103;BME280;57470;50.034;15.256;2024-02-23T12:27:38;97825.00;;;11.39;70.45
70103;BME280;57470;50.034;15.256;2024-02-23T12:30:03;97828.44;;;11.67;69.97
70103;BME280;57470;50.034;15.256;2024-02-23T12:32:29;97819.41;;;11.60;71.54
70103;BME280;57470;50.034;15.256;2024-02-23T12:34:55;97816.63;;;11.79;68.97
70103;BME280;57470;50.034;15.256;2024-02-23T12:37:21;97814.31;;;11.84;69.34
70103;BME280;57470;50.034;15.256;2024-02-23T12:39:48;97805.69;;;11.73;70.12
70103;BME280;57470;50.034;15.256;2024-02-23T12:42:13;97818.53;;;11.42;71.48
70103;BME280;57470;50.034;15.256;2024-02-23T12:44:39;97816.34;;;11.90;69.38
70103;BME280;57470;50.034;15.256;2024-02-23T12:47:04;97819.41;;;11.60;70.11